Time;durP1;ratioP1;P1;durP2;ratioP2;P2;SDS_P1;SDS_P2;PMS_P1;PMS_P2;Temp;Humidity;BMP_temperature;BMP_pressure;BME280_temperature;BME280_humidity;BME280_pressure;Samples;Min_cycle;Max_cycle;Signal;HPM_P1;HPM_P2
2023/08/08 00:01:04;;;;;;;128.07;10.70;;;;;;;;;;5053503;28;20279;-53
2023/08/08 00:03:29;;;;;;;107.07;8.52;;;;;;;;;;5057016;28;20369;-52
2023/08/08 00:05:54;;;;;;;85.45;7.93;;;;;;;;;;5055696;28;20511;-51
2023/08/08 00:08:19;;;;;;;91.33;8.63;;;;;;;;;;5054434;28;20028;-51
2023/08/08 00:10:45;;;;;;;95.45;9.02;;;;;;;;;;5055159;28;20263;-53
2023/08/08 00:13:10;;;;;;;140.63;11.70;;;;;;;;;;5054550;28;20013;-53
2023/08/08 00:15:36;;;;;;;60.23;7.00;;;;;;;;;;5055146;28;20261;-53
2023/08/08 00:18:01;;;;;;;143.93;11.55;;;;;;;;;;5053104;28;20365;-52
2023/08/08 00:20:26;;;;;;;61.20;6.63;;;;;;;;;;5055645;28;20277;-52
2023/08/08 00:22:52;;;;;;;82.67;7.83;;;;;;;;;;5055389;28;20021;-50
2023/08/08 00:25:17;;;;;;;95.00;8.60;;;;;;;;;;5054025;28;20294;-52
2023/08/08 00:27:43;;;;;;;80.38;7.80;;;;;;;;;;5055545;28;20325;-51
2023/08/08 00:30:10;;;;;;;142.50;11.07;;;;;;;;;;5053015;28;20019;-54
2023/08/08 00:32:35;;;;;;;92.47;8.57;;;;;;;;;;5054549;28;20043;-53
2023/08/08 00:35:00;;;;;;;117.87;9.77;;;;;;;;;;5053838;28;20488;-53
2023/08/08 00:37:25;;;;;;;68.20;7.07;;;;;;;;;;5054419;28;20645;-51
2023/08/08 00:39:50;;;;;;;90.00;7.97;;;;;;;;;;5055407;28;20255;-52
2023/08/08 00:42:16;;;;;;;83.30;7.80;;;;;;;;;;5053062;28;20267;-52
2023/08/08 00:44:41;;;;;;;85.43;7.57;;;;;;;;;;5056088;28;20250;-52
2023/08/08 00:47:10;;;;;;;137.88;11.32;;;;;;;;;;5052036;28;20579;-51
2023/08/08 00:49:35;;;;;;;77.10;7.50;;;;;;;;;;5054910;28;20108;-53
2023/08/08 00:52:01;;;;;;;104.05;9.15;;;;;;;;;;5054074;28;20032;-51
2023/08/08 00:54:26;;;;;;;88.72;8.38;;;;;;;;;;5055004;28;20656;-51
2023/08/08 00:56:51;;;;;;;74.82;7.55;;;;;;;;;;5053083;28;20402;-51
2023/08/08 00:59:18;;;;;;;145.50;11.52;;;;;;;;;;5052189;28;20062;-51
2023/08/08 01:01:43;;;;;;;103.20;8.82;;;;;;;;;;5053849;28;20123;-51
2023/08/08 01:04:09;;;;;;;130.40;10.77;;;;;;;;;;5053877;28;20030;-52
2023/08/08 01:06:41;;;;;;;94.45;8.35;;;;;;;;;;5054466;28;20382;-53
2023/08/08 01:09:13;;;;;;;149.07;11.63;;;;;;;;;;5053413;28;20325;-52
2023/08/08 01:11:40;;;;;;;85.53;7.80;;;;;;;;;;5053652;28;21305;-53
2023/08/08 01:14:07;;;;;;;144.02;11.32;;;;;;;;;;5053523;28;20032;-52
2023/08/08 01:16:32;;;;;;;103.97;8.80;;;;;;;;;;5053886;28;20381;-52
2023/08/08 01:18:58;;;;;;;84.22;7.55;;;;;;;;;;5055208;28;20021;-52
2023/08/08 01:21:24;;;;;;;67.43;7.28;;;;;;;;;;5052767;28;20139;-54
2023/08/08 01:23:54;;;;;;;81.22;7.95;;;;;;;;;;5053461;28;20039;-51
2023/08/08 01:26:21;;;;;;;83.75;7.47;;;;;;;;;;5052533;28;20036;-53
2023/08/08 01:28:46;;;;;;;82.20;7.85;;;;;;;;;;5054523;28;20028;-51
2023/08/08 01:31:11;;;;;;;134.50;11.17;;;;;;;;;;5052387;28;20225;-52
2023/08/08 01:33:36;;;;;;;64.57;7.00;;;;;;;;;;5052906;28;20285;-54
2023/08/08 01:36:10;;;;;;;114.68;9.65;;;;;;;;;;5051784;28;20272;-51
2023/08/08 01:38:40;;;;;;;81.40;7.60;;;;;;;;;;5054555;28;20027;-52
2023/08/08 01:41:06;;;;;;;139.10;11.20;;;;;;;;;;5052248;28;20063;-52
2023/08/08 01:43:32;;;;;;;98.55;8.60;;;;;;;;;;5054024;28;20029;-53
2023/08/08 01:45:58;;;;;;;97.85;8.48;;;;;;;;;;5052208;28;20394;-52
2023/08/08 01:48:23;;;;;;;75.05;7.53;;;;;;;;;;5052154;28;20017;-51
2023/08/08 01:50:48;;;;;;;103.47;8.73;;;;;;;;;;5051974;28;20246;-52
2023/08/08 01:53:13;;;;;;;139.37;11.53;;;;;;;;;;5052837;28;20258;-52
2023/08/08 01:55:38;;;;;;;79.22;7.78;;;;;;;;;;5053931;28;20259;-53
2023/08/08 01:58:04;;;;;;;116.47;9.57;;;;;;;;;;5034209;28;20027;-53
2023/08/08 02:00:29;;;;;;;70.93;7.10;;;;;;;;;;5053138;28;20310;-52
2023/08/08 02:02:54;;;;;;;76.20;7.43;;;;;;;;;;5053050;28;20340;-51
2023/08/08 02:05:19;;;;;;;161.93;12.23;;;;;;;;;;5051903;28;20671;-52
2023/08/08 02:07:45;;;;;;;74.07;7.07;;;;;;;;;;5053683;28;20271;-51
2023/08/08 02:10:10;;;;;;;134.27;10.63;;;;;;;;;;5051693;28;20021;-51
2023/08/08 02:12:35;;;;;;;96.60;7.63;;;;;;;;;;5052045;28;20692;-52
2023/08/08 02:15:00;;;;;;;87.70;7.35;;;;;;;;;;5052774;28;20309;-53
2023/08/08 02:17:26;;;;;;;57.93;5.60;;;;;;;;;;5051824;28;20052;-53
2023/08/08 02:19:51;;;;;;;100.07;7.97;;;;;;;;;;5053558;28;20306;-51
2023/08/08 02:22:17;;;;;;;134.93;10.75;;;;;;;;;;5051203;28;20058;-51
2023/08/08 02:24:42;;;;;;;80.80;6.70;;;;;;;;;;5051798;28;20024;-51
2023/08/08 02:27:08;;;;;;;149.82;11.05;;;;;;;;;;5051714;28;20028;-51
2023/08/08 02:29:33;;;;;;;89.45;7.20;;;;;;;;;;5052664;28;20021;-52
2023/08/08 02:31:58;;;;;;;80.10;6.90;;;;;;;;;;5052973;28;20651;-51
2023/08/08 02:34:23;;;;;;;106.77;8.23;;;;;;;;;;5050930;28;20702;-52
2023/08/08 02:36:49;;;;;;;85.80;7.28;;;;;;;;;;5051474;28;20274;-53
2023/08/08 02:39:14;;;;;;;136.65;10.50;;;;;;;;;;5052626;28;20086;-51
2023/08/08 02:41:39;;;;;;;130.38;9.20;;;;;;;;;;5052108;28;20484;-52
2023/08/08 02:44:05;;;;;;;88.53;7.18;;;;;;;;;;5052715;28;20028;-51
2023/08/08 02:46:30;;;;;;;70.33;6.70;;;;;;;;;;5053357;28;20139;-52
2023/08/08 02:48:55;;;;;;;117.00;9.03;;;;;;;;;;5051905;28;20317;-52
2023/08/08 02:51:20;;;;;;;122.03;9.68;;;;;;;;;;5051369;28;20722;-51
2023/08/08 02:53:46;;;;;;;79.47;7.15;;;;;;;;;;5053454;28;20441;-52
2023/08/08 02:56:11;;;;;;;144.83;11.07;;;;;;;;;;5051140;28;20036;-50
2023/08/08 02:58:36;;;;;;;77.97;6.90;;;;;;;;;;5057289;28;20270;-51
2023/08/08 03:01:01;;;;;;;74.57;7.00;;;;;;;;;;5057565;28;20312;-52
2023/08/08 03:03:27;;;;;;;85.00;7.15;;;;;;;;;;5055501;28;20696;-51
2023/08/08 03:05:52;;;;;;;91.10;7.30;;;;;;;;;;5055986;28;20040;-52
2023/08/08 03:08:17;;;;;;;135.13;10.57;;;;;;;;;;5056288;28;20043;-52
2023/08/08 03:10:42;;;;;;;103.47;8.50;;;;;;;;;;5056468;28;20278;-52
2023/08/08 03:13:08;;;;;;;78.65;7.30;;;;;;;;;;5054723;28;20354;-53
2023/08/08 03:15:33;;;;;;;72.53;6.60;;;;;;;;;;5057239;28;20505;-53
2023/08/08 03:17:58;;;;;;;92.65;7.68;;;;;;;;;;5056716;28;20094;-51
2023/08/08 03:20:23;;;;;;;136.63;10.18;;;;;;;;;;5055163;28;20048;-53
2023/08/08 03:22:49;;;;;;;76.55;6.85;;;;;;;;;;5056790;28;20020;-53
2023/08/08 03:25:14;;;;;;;149.43;11.10;;;;;;;;;;5055072;28;20023;-51
2023/08/08 03:27:39;;;;;;;72.97;6.35;;;;;;;;;;5056307;28;20024;-53
2023/08/08 03:30:05;;;;;;;65.07;6.07;;;;;;;;;;5056432;28;20016;-51
2023/08/08 03:32:30;;;;;;;94.47;7.28;;;;;;;;;;5054522;28;20341;-54
2023/08/08 03:34:55;;;;;;;83.57;6.90;;;;;;;;;;5055614;28;20020;-52
2023/08/08 03:37:21;;;;;;;122.93;9.40;;;;;;;;;;5054135;28;20502;-52
2023/08/08 03:39:46;;;;;;;111.17;8.13;;;;;;;;;;5055663;28;20429;-51
2023/08/08 03:42:11;;;;;;;108.07;8.23;;;;;;;;;;5054801;28;20345;-53
2023/08/08 03:44:36;;;;;;;76.25;6.75;;;;;;;;;;5056801;28;20278;-53
2023/08/08 03:47:02;;;;;;;112.85;7.97;;;;;;;;;;5055360;28;20494;-53
2023/08/08 03:49:27;;;;;;;89.97;7.57;;;;;;;;;;5055219;28;20028;-53
2023/08/08 03:51:52;;;;;;;76.80;6.87;;;;;;;;;;5055482;28;20572;-53
2023/08/08 03:54:17;;;;;;;151.33;11.23;;;;;;;;;;5054352;28;20590;-52
2023/08/08 03:56:43;;;;;;;88.65;7.43;;;;;;;;;;5055767;28;20298;-53
2023/08/08 03:59:08;;;;;;;76.50;6.67;;;;;;;;;;5054169;28;20499;-53
2023/08/08 04:01:33;;;;;;;96.35;8.18;;;;;;;;;;5054727;28;20298;-55
2023/08/08 04:03:58;;;;;;;77.30;6.73;;;;;;;;;;5055727;28;20025;-53
2023/08/08 04:06:24;;;;;;;119.47;9.10;;;;;;;;;;5054668;28;20294;-55
2023/08/08 04:08:49;;;;;;;102.32;7.63;;;;;;;;;;5054644;28;20320;-52
2023/08/08 04:11:14;;;;;;;136.80;10.10;;;;;;;;;;5054574;28;20141;-52
2023/08/08 04:13:39;;;;;;;75.87;6.37;;;;;;;;;;5055397;28;20025;-52
2023/08/08 04:16:05;;;;;;;123.60;8.68;;;;;;;;;;5054182;28;20271;-52
2023/08/08 04:18:30;;;;;;;69.05;5.90;;;;;;;;;;5040061;28;20152;-52
2023/08/08 04:20:55;;;;;;;86.67;6.87;;;;;;;;;;5055026;28;20036;-52
2023/08/08 04:23:22;;;;;;;138.80;9.77;;;;;;;;;;5053791;28;20254;-52
2023/08/08 04:25:47;;;;;;;89.20;6.75;;;;;;;;;;5055819;28;20811;-53
2023/08/08 04:28:13;;;;;;;101.47;8.23;;;;;;;;;;5054981;28;20024;-53
2023/08/08 04:30:38;;;;;;;101.45;7.78;;;;;;;;;;5054436;28;20950;-53
2023/08/08 04:33:04;;;;;;;72.55;6.03;;;;;;;;;;5055524;28;20035;-54
2023/08/08 04:35:29;;;;;;;55.63;5.38;;;;;;;;;;5035292;28;20267;-54
2023/08/08 04:37:54;;;;;;;128.03;8.60;;;;;;;;;;5054111;28;20012;-53
2023/08/08 04:40:20;;;;;;;117.43;8.55;;;;;;;;;;5053741;28;20757;-53
2023/08/08 04:42:45;;;;;;;76.10;7.90;;;;;;;;;;5055289;28;20025;-52
2023/08/08 04:45:10;;;;;;;117.87;12.10;;;;;;;;;;5054286;28;20259;-51
2023/08/08 04:47:35;;;;;;;76.22;9.23;;;;;;;;;;5054000;28;20274;-52
2023/08/08 04:50:01;;;;;;;69.03;8.82;;;;;;;;;;5055889;28;20282;-53
2023/08/08 04:52:26;;;;;;;154.43;13.07;;;;;;;;;;5052272;28;20599;-52
2023/08/08 04:54:51;;;;;;;76.95;7.72;;;;;;;;;;5055805;28;20059;-53
2023/08/08 04:57:16;;;;;;;126.67;10.07;;;;;;;;;;5053380;28;20037;-54
2023/08/08 04:59:42;;;;;;;97.93;8.67;;;;;;;;;;5053563;28;20841;-54
2023/08/08 05:02:08;;;;;;;65.00;6.97;;;;;;;;;;5054099;28;20625;-55
2023/08/08 05:04:33;;;;;;;78.75;6.85;;;;;;;;;;5053089;28;20865;-52
2023/08/08 05:06:58;;;;;;;106.93;8.40;;;;;;;;;;5055091;28;20098;-53
2023/08/08 05:09:26;;;;;;;154.13;12.10;;;;;;;;;;5053511;28;20390;-52
2023/08/08 05:11:51;;;;;;;78.78;7.30;;;;;;;;;;5053729;28;20036;-52
2023/08/08 05:14:17;;;;;;;135.65;9.75;;;;;;;;;;5053591;28;20020;-53
2023/08/08 05:16:42;;;;;;;90.53;7.17;;;;;;;;;;5036556;28;20115;-52
2023/08/08 05:19:07;;;;;;;72.27;6.90;;;;;;;;;;5053813;28;20933;-54
2023/08/08 05:21:34;;;;;;;110.07;7.72;;;;;;;;;;5052146;28;20753;-53
2023/08/08 05:23:59;;;;;;;83.45;6.68;;;;;;;;;;5054725;28;20717;-52
2023/08/08 05:26:24;;;;;;;127.82;9.98;;;;;;;;;;5053300;28;20131;-55
2023/08/08 05:28:50;;;;;;;117.40;8.17;;;;;;;;;;5053870;28;20028;-52
2023/08/08 05:31:15;;;;;;;92.32;7.35;;;;;;;;;;5052151;28;20904;-52
2023/08/08 05:33:41;;;;;;;69.20;6.30;;;;;;;;;;5054245;28;20542;-54
2023/08/08 05:36:06;;;;;;;91.70;7.47;;;;;;;;;;5052824;28;20925;-55
2023/08/08 05:38:31;;;;;;;127.88;9.80;;;;;;;;;;5052771;28;20032;-53
2023/08/08 05:40:56;;;;;;;84.80;6.97;;;;;;;;;;5053945;28;20036;-53
2023/08/08 05:43:22;;;;;;;167.87;10.90;;;;;;;;;;5052064;28;20254;-52
2023/08/08 05:45:47;;;;;;;82.38;6.45;;;;;;;;;;5052592;28;20363;-52
2023/08/08 05:48:12;;;;;;;77.38;6.10;;;;;;;;;;5053898;28;20020;-52
2023/08/08 05:50:38;;;;;;;95.28;7.30;;;;;;;;;;5050545;28;20052;-53
2023/08/08 05:53:03;;;;;;;69.05;5.68;;;;;;;;;;5053879;28;20308;-54
2023/08/08 05:55:29;;;;;;;105.72;10.07;;;;;;;;;;5052401;28;20855;-53
2023/08/08 06:00:27;;;;;;;154.07;12.15;;;;;;;;;;5154534;27;20497;-52
2023/08/08 06:02:52;;;;;;;78.65;7.50;;;;;;;;;;5114829;27;20516;-56
2023/08/08 06:05:17;;;;;;;89.13;8.15;;;;;;;;;;5119960;27;20016;-54
2023/08/08 06:07:43;;;;;;;61.55;6.13;;;;;;;;;;5120860;27;20863;-53
2023/08/08 06:10:09;;;;;;;77.45;6.70;;;;;;;;;;5118734;27;20031;-52
2023/08/08 06:12:34;;;;;;;166.90;43.35;;;;;;;;;;5119629;27;20387;-54
2023/08/08 06:14:59;;;;;;;99.20;19.23;;;;;;;;;;5121476;27;20376;-52
2023/08/08 06:17:24;;;;;;;200.20;86.17;;;;;;;;;;5117627;27;20301;-53
2023/08/08 06:19:50;;;;;;;383.30;341.80;;;;;;;;;;5118347;27;20110;-52
2023/08/08 06:22:15;;;;;;;290.25;205.98;;;;;;;;;;5119227;27;20042;-52
2023/08/08 06:24:41;;;;;;;260.88;168.20;;;;;;;;;;5117935;27;20163;-53
2023/08/08 06:27:06;;;;;;;121.90;54.83;;;;;;;;;;5117228;27;20202;-54
2023/08/08 06:29:31;;;;;;;402.50;359.47;;;;;;;;;;5119331;27;20272;-53
2023/08/08 06:31:56;;;;;;;172.00;111.60;;;;;;;;;;5103193;27;20408;-54
2023/08/08 06:34:22;;;;;;;311.45;214.55;;;;;;;;;;5117845;27;20257;-53
2023/08/08 06:36:47;;;;;;;198.40;137.85;;;;;;;;;;5118600;27;20027;-54
2023/08/08 06:39:12;;;;;;;344.60;295.80;;;;;;;;;;5117953;27;20098;-51
2023/08/08 06:41:38;;;;;;;168.63;103.03;;;;;;;;;;5114216;27;20284;-52
2023/08/08 06:44:03;;;;;;;178.77;146.60;;;;;;;;;;5119148;27;20253;-52
2023/08/08 06:46:29;;;;;;;228.60;61.33;;;;;;;;;;5115818;27;20028;-52
2023/08/08 06:48:56;;;;;;;201.50;115.03;;;;;;;;;;5118973;27;20049;-55
2023/08/08 06:51:23;;;;;;;241.68;118.22;;;;;;;;;;5116748;27;20527;-54
2023/08/08 06:53:48;;;;;;;88.35;19.83;;;;;;;;;;5104114;27;20038;-55
2023/08/08 06:56:13;;;;;;;229.47;202.20;;;;;;;;;;5118233;27;20485;-53
2023/08/08 06:58:38;;;;;;;110.13;40.27;;;;;;;;;;5118940;27;20468;-54
2023/08/08 07:01:04;;;;;;;160.73;90.37;;;;;;;;;;5119083;27;20377;-54
2023/08/08 07:03:29;;;;;;;251.80;151.57;;;;;;;;;;5119699;27;20443;-55
2023/08/08 07:05:54;;;;;;;249.03;201.70;;;;;;;;;;5119957;27;20027;-55
2023/08/08 07:08:20;;;;;;;339.17;269.97;;;;;;;;;;5119494;27;20268;-53
2023/08/08 07:10:45;;;;;;;60.55;16.83;;;;;;;;;;5109760;27;20031;-54
2023/08/08 07:13:10;;;;;;;185.10;79.23;;;;;;;;;;5108118;27;20016;-53
2023/08/08 07:15:36;;;;;;;382.23;337.83;;;;;;;;;;5105913;27;20027;-52
2023/08/08 07:18:02;;;;;;;382.48;344.90;;;;;;;;;;5108111;27;20540;-55
2023/08/08 07:20:27;;;;;;;427.70;373.13;;;;;;;;;;5106197;27;20105;-54
2023/08/08 07:22:52;;;;;;;329.52;295.70;;;;;;;;;;5110063;27;20034;-56
2023/08/08 07:25:18;;;;;;;363.40;328.03;;;;;;;;;;5108550;27;20023;-53
2023/08/08 07:27:43;;;;;;;329.77;299.63;;;;;;;;;;5107257;27;20007;-55
2023/08/08 07:30:08;;;;;;;312.53;283.23;;;;;;;;;;5107836;27;20058;-54
2023/08/08 07:32:34;;;;;;;478.48;431.10;;;;;;;;;;5107183;27;20332;-54
2023/08/08 07:35:01;;;;;;;306.98;148.02;;;;;;;;;;5090643;27;20432;-53
2023/08/08 07:37:26;;;;;;;292.90;252.48;;;;;;;;;;5106971;27;20032;-56
2023/08/08 07:39:52;;;;;;;323.98;147.80;;;;;;;;;;5110551;27;20046;-53
2023/08/08 07:42:17;;;;;;;398.70;357.17;;;;;;;;;;5107130;27;20028;-53
2023/08/08 07:44:42;;;;;;;230.80;200.83;;;;;;;;;;5107758;27;20015;-52
2023/08/08 07:47:07;;;;;;;519.03;472.43;;;;;;;;;;5107223;27;20031;-54
2023/08/08 07:49:33;;;;;;;369.38;237.63;;;;;;;;;;5106217;27;20366;-55
2023/08/08 07:51:58;;;;;;;434.57;139.70;;;;;;;;;;5108058;27;20031;-55
2023/08/08 07:54:23;;;;;;;458.20;407.77;;;;;;;;;;5109858;27;20811;-53
2023/08/08 07:56:48;;;;;;;147.60;124.00;;;;;;;;;;5108740;27;20091;-54
2023/08/08 07:59:14;;;;;;;506.77;459.47;;;;;;;;;;5108396;27;20034;-52
2023/08/08 08:01:39;;;;;;;472.43;405.73;;;;;;;;;;5106142;27;20468;-56
2023/08/08 08:04:04;;;;;;;381.60;282.80;;;;;;;;;;5109533;27;20023;-52
2023/08/08 08:06:29;;;;;;;332.23;292.67;;;;;;;;;;5105502;27;20027;-55
2023/08/08 08:08:55;;;;;;;328.73;259.73;;;;;;;;;;5109751;27;20284;-54
2023/08/08 08:11:20;;;;;;;212.67;191.77;;;;;;;;;;5109286;27;20076;-52
2023/08/08 08:13:45;;;;;;;138.27;83.03;;;;;;;;;;5106239;27;20269;-53
2023/08/08 08:16:10;;;;;;;67.30;9.67;;;;;;;;;;5106918;27;20031;-55
2023/08/08 08:18:36;;;;;;;293.13;243.73;;;;;;;;;;5107366;27;20096;-56
2023/08/08 08:21:01;;;;;;;157.27;95.50;;;;;;;;;;5106819;27;20090;-54
2023/08/08 08:23:26;;;;;;;155.30;90.60;;;;;;;;;;5106108;27;20015;-54
2023/08/08 08:25:52;;;;;;;152.40;92.97;;;;;;;;;;5108786;27;20123;-54
2023/08/08 08:28:17;;;;;;;431.63;390.25;;;;;;;;;;5107160;27;20721;-53
2023/08/08 08:30:43;;;;;;;238.60;179.95;;;;;;;;;;5105092;27;20035;-52
2023/08/08 08:33:08;;;;;;;189.25;131.70;;;;;;;;;;5107375;27;20103;-53
2023/08/08 08:35:37;;;;;;;440.83;264.48;;;;;;;;;;5106479;27;20086;-52
2023/08/08 08:38:03;;;;;;;315.10;170.60;;;;;;;;;;5109597;27;20030;-54
2023/08/08 08:40:29;;;;;;;496.73;158.68;;;;;;;;;;5105105;27;20027;-53
2023/08/08 08:42:54;;;;;;;498.08;382.63;;;;;;;;;;5107945;27;20118;-54
2023/08/08 08:45:21;;;;;;;219.47;160.83;;;;;;;;;;5107825;27;20029;-54
2023/08/08 08:47:47;;;;;;;178.93;134.48;;;;;;;;;;5107359;27;20256;-52
2023/08/08 08:50:14;;;;;;;385.10;174.95;;;;;;;;;;5106107;27;20012;-54
2023/08/08 08:52:39;;;;;;;289.98;222.80;;;;;;;;;;5104508;27;20019;-54
2023/08/08 08:55:05;;;;;;;236.97;176.27;;;;;;;;;;5107527;27;20011;-56
2023/08/08 08:57:30;;;;;;;253.73;188.05;;;;;;;;;;5104970;27;20137;-54
2023/08/08 08:59:55;;;;;;;240.33;177.27;;;;;;;;;;5106093;27;20081;-55
2023/08/08 09:02:21;;;;;;;403.23;133.57;;;;;;;;;;5105246;27;20027;-53
2023/08/08 09:04:46;;;;;;;269.35;163.20;;;;;;;;;;5104829;27;20034;-54
2023/08/08 09:07:12;;;;;;;462.88;213.00;;;;;;;;;;5105684;27;20027;-53
2023/08/08 09:09:38;;;;;;;285.45;156.70;;;;;;;;;;5103905;27;20058;-53
2023/08/08 09:12:04;;;;;;;367.00;274.58;;;;;;;;;;5104859;27;20035;-54
2023/08/08 09:14:30;;;;;;;269.20;114.32;;;;;;;;;;5106735;27;20579;-54
2023/08/08 09:16:56;;;;;;;328.05;216.68;;;;;;;;;;5106700;27;20035;-55
2023/08/08 09:19:22;;;;;;;284.88;251.88;;;;;;;;;;5106649;27;20066;-53
2023/08/08 09:21:48;;;;;;;389.08;267.08;;;;;;;;;;5104444;27;20066;-56
2023/08/08 09:24:13;;;;;;;333.95;300.02;;;;;;;;;;5106304;27;20109;-53
2023/08/08 09:26:39;;;;;;;330.35;294.83;;;;;;;;;;5104990;27;20055;-55
2023/08/08 09:29:04;;;;;;;242.38;215.88;;;;;;;;;;5109920;27;20039;-54
2023/08/08 09:31:30;;;;;;;756.25;262.90;;;;;;;;;;5103901;27;20433;-53
2023/08/08 09:33:59;;;;;;;347.70;277.65;;;;;;;;;;5106289;27;20031;-52
2023/08/08 09:36:25;;;;;;;318.45;284.58;;;;;;;;;;5105891;27;20457;-54
2023/08/08 09:38:50;;;;;;;152.98;109.78;;;;;;;;;;5104140;27;20136;-55
2023/08/08 09:41:16;;;;;;;292.43;51.03;;;;;;;;;;5106315;27;20040;-54
2023/08/08 09:43:44;;;;;;;317.92;249.98;;;;;;;;;;5104930;27;20500;-53
2023/08/08 09:46:10;;;;;;;228.43;155.35;;;;;;;;;;5105767;27;20080;-55
2023/08/08 09:48:35;;;;;;;437.60;390.20;;;;;;;;;;5104092;27;20426;-53
2023/08/08 09:51:01;;;;;;;519.20;79.00;;;;;;;;;;5105811;27;20150;-53
2023/08/08 09:53:27;;;;;;;140.95;85.40;;;;;;;;;;5106144;27;20729;-53
2023/08/08 09:55:53;;;;;;;297.63;259.95;;;;;;;;;;5106418;27;20038;-55
2023/08/08 09:58:19;;;;;;;450.50;407.75;;;;;;;;;;5104014;27;20022;-56
2023/08/08 10:00:44;;;;;;;343.80;220.57;;;;;;;;;;5105001;27;20517;-54
2023/08/08 10:03:09;;;;;;;243.15;51.13;;;;;;;;;;5107109;27;20584;-54
2023/08/08 10:05:36;;;;;;;339.77;293.40;;;;;;;;;;5103462;27;20645;-56
2023/08/08 10:08:02;;;;;;;165.85;90.68;;;;;;;;;;5107202;27;20034;-54
2023/08/08 10:10:27;;;;;;;305.05;273.63;;;;;;;;;;5105651;27;20032;-55
2023/08/08 10:12:53;;;;;;;153.88;46.33;;;;;;;;;;5086873;27;20546;-55
2023/08/08 10:15:18;;;;;;;214.02;139.82;;;;;;;;;;5107221;27;20022;-54
2023/08/08 10:17:44;;;;;;;170.15;60.63;;;;;;;;;;5103480;27;20683;-53
2023/08/08 10:20:12;;;;;;;409.67;370.27;;;;;;;;;;5106015;27;20395;-54
2023/08/08 10:22:42;;;;;;;373.73;274.60;;;;;;;;;;5105983;27;20130;-53
2023/08/08 10:25:08;;;;;;;222.25;176.00;;;;;;;;;;5106342;27;20019;-54
2023/08/08 10:27:34;;;;;;;130.45;67.90;;;;;;;;;;5102405;27;20035;-54
2023/08/08 10:30:07;;;;;;;231.25;181.20;;;;;;;;;;5106052;27;20845;-55
2023/08/08 10:32:39;;;;;;;386.95;346.77;;;;;;;;;;5090639;27;20040;-53
2023/08/08 10:35:05;;;;;;;300.67;248.00;;;;;;;;;;5107777;27;20023;-54
2023/08/08 10:37:30;;;;;;;325.77;233.80;;;;;;;;;;5104719;27;20050;-54
2023/08/08 10:39:59;;;;;;;97.03;23.00;;;;;;;;;;5104391;27;20468;-56
2023/08/08 10:42:25;;;;;;;226.15;160.85;;;;;;;;;;5106420;27;20269;-54
2023/08/08 10:44:54;;;;;;;300.73;181.50;;;;;;;;;;5106184;27;20419;-53
2023/08/08 10:47:24;;;;;;;339.95;301.52;;;;;;;;;;5107690;27;20066;-54
2023/08/08 10:50:11;;;;;;;552.85;97.97;;;;;;;;;;5107510;27;20096;-55
2023/08/08 10:52:52;;;;;;;428.80;381.40;;;;;;;;;;5107595;27;20064;-53
2023/08/08 10:55:26;;;;;;;293.90;203.63;;;;;;;;;;5109399;27;20043;-55
2023/08/08 10:57:56;;;;;;;329.48;178.77;;;;;;;;;;5108405;27;20065;-53
2023/08/08 11:00:24;;;;;;;405.80;257.17;;;;;;;;;;5109036;27;20026;-54
2023/08/08 11:02:50;;;;;;;370.05;151.57;;;;;;;;;;5106818;27;20556;-54
2023/08/08 11:05:16;;;;;;;97.55;28.70;;;;;;;;;;5109516;27;20030;-53
2023/08/08 11:07:42;;;;;;;173.27;115.43;;;;;;;;;;5109742;27;20020;-53
2023/08/08 11:10:07;;;;;;;251.25;98.18;;;;;;;;;;5109020;27;20023;-53
2023/08/08 11:12:33;;;;;;;426.58;343.35;;;;;;;;;;5109401;27;20027;-53
2023/08/08 11:14:58;;;;;;;258.08;127.80;;;;;;;;;;5109438;27;20011;-54
2023/08/08 11:17:24;;;;;;;313.58;59.17;;;;;;;;;;5108806;27;20038;-54
2023/08/08 11:19:50;;;;;;;392.73;140.35;;;;;;;;;;5107881;27;20023;-53
2023/08/08 11:22:16;;;;;;;351.40;316.95;;;;;;;;;;5109058;27;20032;-55
2023/08/08 11:24:41;;;;;;;275.30;90.93;;;;;;;;;;5104828;27;20942;-53
2023/08/08 11:27:06;;;;;;;147.60;38.75;;;;;;;;;;5108437;27;20527;-52
2023/08/08 11:29:32;;;;;;;145.45;29.63;;;;;;;;;;5108606;27;20480;-54
2023/08/08 11:31:59;;;;;;;311.17;269.02;;;;;;;;;;5105620;27;20097;-53
2023/08/08 11:34:25;;;;;;;127.40;42.13;;;;;;;;;;5107281;27;20026;-53
2023/08/08 11:36:51;;;;;;;343.17;148.35;;;;;;;;;;5107248;27;20028;-54
2023/08/08 11:39:17;;;;;;;193.38;118.72;;;;;;;;;;5108402;27;20026;-53
2023/08/08 11:41:42;;;;;;;332.42;237.75;;;;;;;;;;5108465;27;20469;-55
2023/08/08 11:44:08;;;;;;;152.82;97.18;;;;;;;;;;5107892;27;20023;-55
2023/08/08 11:46:33;;;;;;;200.40;121.03;;;;;;;;;;5105910;27;20084;-53
2023/08/08 11:49:02;;;;;;;283.85;235.40;;;;;;;;;;5108149;27;20031;-54
2023/08/08 11:51:27;;;;;;;141.07;67.43;;;;;;;;;;5108764;27;20031;-54
2023/08/08 11:53:53;;;;;;;274.83;175.83;;;;;;;;;;5105538;27;20042;-53
2023/08/08 11:56:21;;;;;;;286.40;257.27;;;;;;;;;;5108891;27;20338;-52
2023/08/08 11:58:48;;;;;;;384.95;211.05;;;;;;;;;;5107134;27;20046;-53
2023/08/08 12:01:14;;;;;;;314.50;280.35;;;;;;;;;;5108865;27;20098;-53
2023/08/08 12:03:39;;;;;;;440.25;189.02;;;;;;;;;;5105106;27;20110;-54
2023/08/08 12:06:17;;;;;;;358.63;324.08;;;;;;;;;;5110669;27;20051;-53
2023/08/08 12:08:43;;;;;;;430.65;242.48;;;;;;;;;;5107677;27;20043;-54
2023/08/08 12:11:09;;;;;;;244.18;178.63;;;;;;;;;;5106919;27;20503;-54
2023/08/08 12:13:36;;;;;;;295.27;214.50;;;;;;;;;;5108204;27;20083;-55
2023/08/08 12:16:03;;;;;;;308.35;233.85;;;;;;;;;;5106660;27;20036;-53
2023/08/08 12:18:29;;;;;;;355.42;317.90;;;;;;;;;;5100049;27;20019;-54
2023/08/08 12:20:54;;;;;;;520.28;189.60;;;;;;;;;;5104138;27;20028;-54
2023/08/08 12:23:19;;;;;;;275.33;171.70;;;;;;;;;;5110120;27;20018;-54
2023/08/08 12:25:45;;;;;;;498.03;449.43;;;;;;;;;;5106649;27;20023;-52
2023/08/08 12:28:11;;;;;;;540.65;119.03;;;;;;;;;;5107598;27;20253;-53
2023/08/08 12:30:36;;;;;;;323.10;129.27;;;;;;;;;;5107070;27;20397;-55
2023/08/08 12:33:01;;;;;;;448.50;401.40;;;;;;;;;;5105642;27;20263;-53
2023/08/08 12:35:27;;;;;;;324.45;290.70;;;;;;;;;;5105977;27;20269;-52
2023/08/08 12:37:52;;;;;;;288.77;188.77;;;;;;;;;;5106351;27;20051;-53
2023/08/08 12:40:18;;;;;;;306.35;224.73;;;;;;;;;;5107227;27;20096;-52
2023/08/08 12:42:43;;;;;;;453.67;314.90;;;;;;;;;;5104843;27;20011;-52
2023/08/08 12:45:09;;;;;;;285.43;257.97;;;;;;;;;;5106383;27;20278;-52
2023/08/08 12:47:37;;;;;;;309.83;276.83;;;;;;;;;;5106918;27;20178;-51
2023/08/08 12:50:03;;;;;;;225.20;60.45;;;;;;;;;;5106016;27;20027;-52
2023/08/08 12:52:28;;;;;;;164.48;142.63;;;;;;;;;;5106473;27;20042;-53
2023/08/08 12:54:53;;;;;;;197.57;104.70;;;;;;;;;;5106783;27;20048;-54
2023/08/08 12:57:18;;;;;;;266.87;154.90;;;;;;;;;;5105937;27;20030;-54
2023/08/08 12:59:44;;;;;;;233.10;162.97;;;;;;;;;;5090979;27;20907;-53
2023/08/08 13:02:09;;;;;;;250.30;166.87;;;;;;;;;;5106182;27;20023;-53
2023/08/08 13:04:34;;;;;;;223.17;115.70;;;;;;;;;;5106873;27;20359;-53
2023/08/08 13:06:59;;;;;;;270.87;220.87;;;;;;;;;;5104113;27;20115;-52
2023/08/08 13:09:24;;;;;;;238.13;163.63;;;;;;;;;;5106423;27;20263;-53
2023/08/08 13:11:50;;;;;;;465.60;323.27;;;;;;;;;;5103633;27;20641;-53
2023/08/08 13:14:16;;;;;;;269.42;207.57;;;;;;;;;;5107408;27;20476;-52
2023/08/08 13:16:41;;;;;;;327.65;284.02;;;;;;;;;;5106956;27;20053;-54
2023/08/08 13:19:06;;;;;;;345.88;309.95;;;;;;;;;;5106474;27;20023;-52
2023/08/08 13:21:32;;;;;;;447.23;406.05;;;;;;;;;;5106752;27;20366;-53
2023/08/08 13:23:57;;;;;;;187.23;58.05;;;;;;;;;;5105903;27;20339;-52
2023/08/08 13:26:23;;;;;;;405.30;367.73;;;;;;;;;;5106698;27;20524;-53
2023/08/08 13:28:49;;;;;;;151.37;22.77;;;;;;;;;;5104800;27;20107;-54
2023/08/08 13:31:15;;;;;;;348.08;313.23;;;;;;;;;;5106237;27;20578;-54
2023/08/08 13:33:40;;;;;;;259.85;205.25;;;;;;;;;;5107239;27;20027;-54
2023/08/08 13:36:06;;;;;;;282.50;243.97;;;;;;;;;;5104868;27;20070;-54
2023/08/08 13:38:31;;;;;;;330.58;131.85;;;;;;;;;;5106750;27;20023;-53
2023/08/08 13:40:57;;;;;;;385.45;308.27;;;;;;;;;;5104991;27;20036;-54
2023/08/08 13:43:22;;;;;;;281.73;214.38;;;;;;;;;;5107464;27;20003;-53
2023/08/08 13:45:47;;;;;;;254.18;46.42;;;;;;;;;;5105222;27;20019;-53
2023/08/08 13:48:12;;;;;;;342.53;220.30;;;;;;;;;;5108390;27;20011;-55
2023/08/08 13:50:38;;;;;;;231.87;111.40;;;;;;;;;;5106542;27;20070;-54
2023/08/08 13:53:03;;;;;;;288.33;246.50;;;;;;;;;;5104979;27;20272;-54
2023/08/08 13:55:29;;;;;;;303.33;189.65;;;;;;;;;;5106517;27;20028;-53
2023/08/08 13:57:55;;;;;;;345.43;192.97;;;;;;;;;;5106411;27;20015;-53
2023/08/08 14:00:21;;;;;;;454.83;85.70;;;;;;;;;;5107551;27;20276;-54